Time;durP1;ratioP1;P1;durP2;ratioP2;P2;SDS_P1;SDS_P2;PMS_P1;PMS_P2;Temp;Humidity;BMP_temperature;BMP_pressure;BME280_temperature;BME280_humidity;BME280_pressure;Samples;Min_cycle;Max_cycle;Signal;HPM_P1;HPM_P2
2021/09/27 00:00:30;;;;;;;12.57;11.27;;;18.50;99.90;;;;;;5068483;28;20500;-54
2021/09/27 00:02:56;;;;;;;14.03;12.83;;;18.50;99.90;;;;;;5068076;28;20952;-53
2021/09/27 00:05:23;;;;;;;14.03;12.73;;;18.40;99.90;;;;;;5069346;28;20458;-50
2021/09/27 00:07:48;;;;;;;13.13;11.87;;;18.30;99.90;;;;;;5067442;28;20186;-50
2021/09/27 00:10:18;;;;;;;13.13;11.83;;;18.30;99.90;;;;;;5068110;28;20440;-49
2021/09/27 00:12:44;;;;;;;13.47;12.23;;;18.30;99.90;;;;;;5067912;28;20200;-50
2021/09/27 00:15:14;;;;;;;12.47;10.93;;;18.20;99.90;;;;;;5070863;28;21099;-52
2021/09/27 00:17:39;;;;;;;13.10;11.90;;;18.20;99.90;;;;;;5076618;28;20456;-47
2021/09/27 00:20:06;;;;;;;13.03;11.80;;;18.20;99.90;;;;;;5069494;28;20937;-55
2021/09/27 00:22:32;;;;;;;12.60;11.50;;;18.10;99.90;;;;;;5070831;28;20192;-50
2021/09/27 00:24:58;;;;;;;12.77;11.57;;;18.10;99.90;;;;;;5064618;28;20773;-54
2021/09/27 00:27:23;;;;;;;14.00;12.70;;;18.00;99.90;;;;;;5067751;28;20569;-51
2021/09/27 00:29:49;;;;;;;12.60;11.50;;;18.00;99.90;;;;;;5070755;28;20192;-53
2021/09/27 00:32:14;;;;;;;12.13;11.03;;;18.00;99.90;;;;;;5068583;28;20549;-50
2021/09/27 00:34:40;;;;;;;14.30;13.00;;;18.00;99.90;;;;;;5070253;28;20207;-50
2021/09/27 00:37:06;;;;;;;13.70;12.50;;;17.90;99.90;;;;;;5071569;28;20183;-49
2021/09/27 00:39:31;;;;;;;13.77;12.50;;;17.80;99.90;;;;;;5086296;28;20212;-51
2021/09/27 00:41:57;;;;;;;13.47;12.37;;;17.80;99.90;;;;;;5072982;28;20189;-47
2021/09/27 00:44:22;;;;;;;13.50;12.40;;;17.80;99.90;;;;;;5063007;28;20697;-51
2021/09/27 00:46:49;;;;;;;13.90;12.60;;;17.70;99.90;;;;;;5066371;28;20258;-50
2021/09/27 00:49:15;;;;;;;13.60;12.40;;;17.70;99.90;;;;;;5068812;28;20194;-50
2021/09/27 00:51:43;;;;;;;14.93;13.33;;;17.60;99.90;;;;;;5077741;28;20450;-51
2021/09/27 00:54:33;;;;;;;13.93;12.63;;;17.60;99.90;;;;;;5072711;28;20525;-52
2021/09/27 00:57:12;;;;;;;13.10;12.00;;;17.70;99.90;;;;;;5087824;28;20454;-48
2021/09/27 00:59:40;;;;;;;13.37;12.20;;;17.70;99.90;;;;;;5070824;28;20450;-51
2021/09/27 01:02:07;;;;;;;13.87;12.47;;;17.70;99.90;;;;;;5075938;28;20453;-59
2021/09/27 01:04:32;;;;;;;13.33;12.20;;;17.70;99.90;;;;;;5091332;28;20424;-51
2021/09/27 01:07:29;;;;;;;13.33;12.23;;;17.70;99.90;;;;;;5074227;28;20440;-49
2021/09/27 01:10:06;;;;;;;13.93;12.70;;;17.80;99.90;;;;;;5070326;28;20191;-51
2021/09/27 01:12:47;;;;;;;13.90;12.50;;;17.80;99.90;;;;;;5088368;28;20524;-48
2021/09/27 01:15:25;;;;;;;12.93;11.70;;;17.70;99.90;;;;;;5080970;28;20468;-49
2021/09/27 01:17:59;;;;;;;13.17;11.97;;;17.70;99.90;;;;;;5069156;28;20497;-50
2021/09/27 01:20:36;;;;;;;13.67;12.43;;;17.70;99.90;;;;;;5066828;28;20423;-49
2021/09/27 01:23:27;;;;;;;14.37;13.07;;;17.70;99.90;;;;;;5070450;28;20794;-53
2021/09/27 01:26:11;;;;;;;13.50;12.17;;;17.70;99.90;;;;;;5082876;28;20453;-51
2021/09/27 01:28:51;;;;;;;14.03;12.73;;;17.70;99.90;;;;;;5071487;28;20443;-53
2021/09/27 01:31:23;;;;;;;13.60;12.40;;;17.80;99.90;;;;;;5059252;28;20423;-49
2021/09/27 01:34:14;;;;;;;13.53;12.40;;;17.80;99.90;;;;;;5065452;28;20879;-53
2021/09/27 01:36:57;;;;;;;14.00;12.77;;;17.80;99.90;;;;;;5077780;28;20504;-50
2021/09/27 01:39:41;;;;;;;14.10;12.80;;;17.80;99.90;;;;;;5074833;28;20468;-51
2021/09/27 01:42:21;;;;;;;14.03;12.57;;;17.80;99.90;;;;;;5073420;28;21004;-50
2021/09/27 01:45:12;;;;;;;14.30;13.07;;;17.90;99.90;;;;;;5074396;28;20490;-53
2021/09/27 01:47:50;;;;;;;14.00;12.80;;;18.10;99.90;;;;;;5071592;28;20496;-47
2021/09/27 01:50:33;;;;;;;13.47;12.37;;;18.10;99.90;;;;;;5075266;28;21023;-49
2021/09/27 01:53:09;;;;;;;13.80;12.47;;;18.20;99.90;;;;;;5055743;28;20436;-54
2021/09/27 01:55:57;;;;;;;13.43;12.23;;;18.20;99.90;;;;;;5065194;28;20471;-51
2021/09/27 01:58:45;;;;;;;14.67;13.37;;;18.10;99.90;;;;;;5056399;28;20437;-57
2021/09/27 02:01:29;;;;;;;14.77;13.57;;;18.10;99.90;;;;;;5070042;28;20443;-51
2021/09/27 02:04:01;;;;;;;14.87;13.47;;;18.00;99.90;;;;;;5069066;28;20497;-50
2021/09/27 02:06:41;;;;;;;15.10;13.57;;;17.90;99.90;;;;;;5053618;28;20525;-54
2021/09/27 02:09:40;;;;;;;15.00;13.70;;;17.90;99.90;;;;;;5066725;28;20528;-52
2021/09/27 02:12:14;;;;;;;15.90;14.50;;;17.90;99.90;;;;;;5069462;28;20438;-57
2021/09/27 02:15:10;;;;;;;14.10;12.90;;;17.80;99.90;;;;;;5069926;28;20467;-49
2021/09/27 02:17:50;;;;;;;15.07;13.67;;;17.80;99.90;;;;;;5068833;28;20429;-51
2021/09/27 02:20:26;;;;;;;14.80;13.50;;;17.80;99.90;;;;;;5063173;28;21028;-50
2021/09/27 02:23:01;;;;;;;15.00;13.70;;;17.90;99.90;;;;;;5067370;28;20427;-48
2021/09/27 02:25:33;;;;;;;15.17;13.87;;;17.90;99.90;;;;;;5070565;28;20441;-57
2021/09/27 02:28:03;;;;;;;15.27;13.87;;;17.80;99.90;;;;;;5077497;28;20910;-51
2021/09/27 02:30:39;;;;;;;14.63;13.43;;;17.90;99.90;;;;;;5069612;28;20476;-48
2021/09/27 02:33:16;;;;;;;14.50;13.17;;;17.90;99.90;;;;;;5083960;28;20484;-53
2021/09/27 02:36:15;;;;;;;15.00;13.40;;;17.80;99.90;;;;;;5071177;28;20466;-51
2021/09/27 02:39:08;;;;;;;14.43;13.17;;;17.80;99.90;;;;;;5063626;28;20476;-52
2021/09/27 02:41:48;;;;;;;15.00;13.70;;;17.80;99.90;;;;;;5063367;28;20430;-49
2021/09/27 02:44:15;;;;;;;14.57;13.17;;;17.80;99.90;;;;;;5066383;28;20492;-49
2021/09/27 02:46:43;;;;;;;14.33;12.93;;;17.80;99.90;;;;;;5079313;28;20457;-51
2021/09/27 02:49:12;;;;;;;14.63;13.30;;;17.70;99.90;;;;;;5075453;28;20458;-58
2021/09/27 02:51:41;;;;;;;14.40;13.10;;;17.80;99.90;;;;;;5072332;28;20454;-54
2021/09/27 02:54:08;;;;;;;14.50;13.20;;;17.70;99.90;;;;;;5073303;28;20436;-52
2021/09/27 02:57:01;;;;;;;14.73;13.50;;;17.70;99.90;;;;;;5072067;28;20614;-50
2021/09/27 02:59:41;;;;;;;15.20;13.90;;;17.70;99.90;;;;;;5057593;28;20448;-52
2021/09/27 03:02:23;;;;;;;14.47;13.17;;;17.70;99.90;;;;;;5069106;28;20462;-49
2021/09/27 03:05:26;;;;;;;14.70;13.40;;;17.70;99.90;;;;;;5069277;28;20457;-51
2021/09/27 03:07:52;;;;;;;15.60;14.20;;;17.70;99.90;;;;;;5058833;28;20438;-48
2021/09/27 03:10:36;;;;;;;16.10;14.70;;;17.70;99.90;;;;;;5070243;28;20935;-50
2021/09/27 03:13:29;;;;;;;16.27;14.53;;;17.60;99.90;;;;;;5077343;28;20188;-52
2021/09/27 03:15:54;;;;;;;17.07;15.57;;;17.60;99.90;;;;;;5066574;28;20460;-52
2021/09/27 03:18:33;;;;;;;17.27;15.70;;;17.60;99.90;;;;;;5072152;28;20513;-47
2021/09/27 03:21:21;;;;;;;17.43;15.80;;;17.50;99.90;;;;;;5067039;28;20190;-50
2021/09/27 03:24:11;;;;;;;20.00;18.30;;;17.50;99.90;;;;;;5072855;28;20445;-51
2021/09/27 03:26:52;;;;;;;20.07;18.30;;;17.50;99.90;;;;;;5059074;28;20442;-48
2021/09/27 03:29:36;;;;;;;19.80;18.13;;;17.40;99.90;;;;;;5072048;28;20959;-50
2021/09/27 03:32:18;;;;;;;19.90;18.00;;;17.40;99.90;;;;;;5069423;28;20435;-47
2021/09/27 03:35:11;;;;;;;21.07;19.27;;;17.30;99.90;;;;;;5070830;28;20556;-52
2021/09/27 03:38:02;;;;;;;21.20;19.20;;;17.30;99.90;;;;;;5073336;28;20445;-51
2021/09/27 03:40:59;;;;;;;19.80;17.63;;;17.30;99.90;;;;;;5063029;28;20576;-52
2021/09/27 03:43:45;;;;;;;21.10;19.10;;;17.10;99.90;;;;;;5061694;28;20478;-54
2021/09/27 03:46:13;;;;;;;20.70;18.80;;;17.10;99.90;;;;;;5081360;28;20910;-49
2021/09/27 03:48:56;;;;;;;20.57;18.57;;;16.90;99.90;;;;;;5065080;28;20530;-58
2021/09/27 03:51:27;;;;;;;20.70;18.90;;;16.80;99.90;;;;;;5072603;28;20436;-52
2021/09/27 03:53:58;;;;;;;21.33;19.33;;;16.80;99.90;;;;;;5070068;28;20989;-51
2021/09/27 03:56:40;;;;;;;20.90;18.80;;;16.70;99.90;;;;;;5075631;28;20685;-59
2021/09/27 03:59:21;;;;;;;20.67;18.60;;;16.70;99.90;;;;;;5064764;28;20516;-52
2021/09/27 04:02:06;;;;;;;19.70;17.70;;;16.70;99.90;;;;;;5068077;28;20424;-52
2021/09/27 04:04:58;;;;;;;20.37;18.30;;;16.70;99.90;;;;;;5062314;28;20444;-54
2021/09/27 04:07:40;;;;;;;19.80;17.83;;;16.70;99.90;;;;;;5060333;28;20532;-52
2021/09/27 04:10:39;;;;;;;21.47;19.00;;;16.70;99.90;;;;;;5070259;28;20592;-55
2021/09/27 04:13:37;;;;;;;21.20;19.20;;;16.70;99.90;;;;;;5075958;28;20443;-50
2021/09/27 04:16:22;;;;;;;20.10;18.20;;;16.70;99.90;;;;;;5060264;28;20467;-53
2021/09/27 04:19:00;;;;;;;20.03;18.00;;;16.70;99.90;;;;;;5066218;28;21148;-51
2021/09/27 04:21:32;;;;;;;20.27;18.27;;;16.80;99.90;;;;;;5060393;28;20449;-51
2021/09/27 04:24:10;;;;;;;20.23;17.37;;;16.70;99.90;;;;;;5065336;28;20439;-48
2021/09/27 04:26:35;;;;;;;20.80;18.70;;;16.80;99.90;;;;;;5063447;28;20459;-52
2021/09/27 04:29:21;;;;;;;19.90;17.80;;;16.80;99.90;;;;;;5078640;28;20432;-51
2021/09/27 04:31:55;;;;;;;19.47;17.57;;;16.80;99.90;;;;;;5067943;28;20186;-54
2021/09/27 04:34:21;;;;;;;20.13;18.13;;;16.80;99.90;;;;;;5064120;28;20429;-52
2021/09/27 04:36:47;;;;;;;19.37;17.37;;;16.80;99.90;;;;;;5065071;28;20484;-51
2021/09/27 04:39:17;;;;;;;21.30;19.10;;;16.80;99.90;;;;;;5065738;28;20183;-59
2021/09/27 04:42:06;;;;;;;20.13;18.00;;;16.70;99.90;;;;;;5068786;28;20512;-50
2021/09/27 04:45:00;;;;;;;20.90;18.27;;;16.70;99.90;;;;;;5062443;28;20455;-49
2021/09/27 04:47:35;;;;;;;20.83;18.37;;;16.70;99.90;;;;;;5087093;28;20780;-48
2021/09/27 04:50:38;;;;;;;22.80;20.47;;;16.70;99.90;;;;;;5073607;28;20469;-48
2021/09/27 04:53:09;;;;;;;22.20;19.97;;;16.60;99.90;;;;;;5072041;28;20408;-50
2021/09/27 04:56:02;;;;;;;22.37;20.07;;;16.60;99.90;;;;;;5085799;28;20551;-48
2021/09/27 04:58:39;;;;;;;23.33;20.13;;;16.60;99.90;;;;;;5083219;28;20461;-49
2021/09/27 05:01:08;;;;;;;25.20;21.47;;;16.60;99.90;;;;;;5084271;28;20426;-50
2021/09/27 05:03:53;;;;;;;24.70;22.00;;;16.50;99.90;;;;;;5092416;28;20541;-49
2021/09/27 05:06:26;;;;;;;22.80;20.07;;;16.40;99.90;;;;;;5065393;28;20419;-50
2021/09/27 05:08:59;;;;;;;25.77;22.80;;;16.40;99.90;;;;;;5089028;28;20415;-49
2021/09/27 05:11:39;;;;;;;28.47;22.70;;;16.30;99.90;;;;;;5075148;28;20468;-57
2021/09/27 05:14:30;;;;;;;25.07;22.10;;;16.30;99.90;;;;;;5092132;28;20964;-50
2021/09/27 05:17:05;;;;;;;26.57;22.47;;;16.30;99.90;;;;;;5083243;28;20423;-49
2021/09/27 05:19:48;;;;;;;25.83;22.10;;;16.30;99.90;;;;;;5086185;28;20419;-48
2021/09/27 05:22:47;;;;;;;25.20;22.60;;;16.30;99.90;;;;;;5071635;28;20424;-46
2021/09/27 05:25:34;;;;;;;25.20;22.80;;;16.30;99.90;;;;;;5070866;28;20427;-48
2021/09/27 05:28:28;;;;;;;25.10;22.47;;;16.30;99.90;;;;;;5071668;28;20489;-48
2021/09/27 05:31:19;;;;;;;23.90;21.57;;;16.40;99.90;;;;;;5071273;28;21037;-51
2021/09/27 05:34:00;;;;;;;24.50;22.00;;;16.40;99.90;;;;;;5090552;28;20415;-48
2021/09/27 05:36:59;;;;;;;25.40;22.10;;;16.40;99.90;;;;;;5079288;28;20487;-47
2021/09/27 05:39:43;;;;;;;24.50;22.00;;;16.40;99.90;;;;;;5090230;28;20811;-51
2021/09/27 05:42:17;;;;;;;23.60;21.10;;;16.40;99.90;;;;;;5075889;28;20412;-53
2021/09/27 05:44:57;;;;;;;24.20;21.70;;;16.40;99.90;;;;;;5059813;28;20475;-52
2021/09/27 05:47:47;;;;;;;23.27;20.97;;;16.50;99.90;;;;;;5087070;28;20431;-52
2021/09/27 05:50:18;;;;;;;25.23;22.47;;;16.50;99.90;;;;;;5091593;28;20446;-50
2021/09/27 05:53:08;;;;;;;23.00;20.43;;;16.50;99.90;;;;;;5091404;28;20915;-51
2021/09/27 05:55:40;;;;;;;24.13;21.70;;;16.50;99.90;;;;;;5076683;28;20571;-53
2021/09/27 05:58:30;;;;;;;25.93;22.33;;;16.60;99.90;;;;;;5067995;28;20434;-49
2021/09/27 06:01:07;;;;;;;25.07;21.53;;;16.60;99.90;;;;;;5065379;28;20793;-48
2021/09/27 06:03:52;;;;;;;22.17;19.97;;;16.70;99.90;;;;;;5087569;28;20419;-50
2021/09/27 06:06:30;;;;;;;23.03;20.73;;;16.60;99.90;;;;;;5091214;28;20430;-48
2021/09/27 06:09:23;;;;;;;23.77;21.17;;;16.70;99.90;;;;;;5086055;28;20518;-48
2021/09/27 06:12:04;;;;;;;25.13;22.40;;;16.60;99.90;;;;;;5070636;28;20443;-50
2021/09/27 06:14:32;;;;;;;23.77;21.30;;;16.60;99.90;;;;;;5070832;28;20422;-48
2021/09/27 06:17:05;;;;;;;25.03;22.53;;;16.50;99.90;;;;;;5078008;28;20480;-51
2021/09/27 06:19:51;;;;;;;23.90;21.40;;;16.60;99.90;;;;;;5084828;28;21098;-54
2021/09/27 06:22:34;;;;;;;23.70;21.27;;;16.60;99.90;;;;;;5071615;28;20895;-47
2021/09/27 06:25:11;;;;;;;24.57;22.07;;;16.70;99.90;;;;;;5089835;28;20516;-50
2021/09/27 06:27:49;;;;;;;26.37;21.17;;;16.70;99.90;;;;;;5083337;28;20521;-52
2021/09/27 06:30:23;;;;;;;23.90;21.60;;;16.60;99.90;;;;;;5082571;28;20467;-48
2021/09/27 06:33:12;;;;;;;24.90;22.40;;;16.70;99.90;;;;;;5088815;28;20916;-49
2021/09/27 06:35:39;;;;;;;27.33;24.40;;;16.70;99.90;;;;;;5085841;28;20504;-48
2021/09/27 06:38:09;;;;;;;24.40;21.90;;;16.80;99.90;;;;;;5090612;28;20421;-52
2021/09/27 06:40:40;;;;;;;26.27;23.47;;;16.80;99.90;;;;;;5088927;28;20817;-47
2021/09/27 06:43:10;;;;;;;23.93;21.50;;;16.90;99.90;;;;;;5079549;28;20476;-49
2021/09/27 06:45:37;;;;;;;25.13;22.43;;;16.90;99.90;;;;;;5062486;28;20476;-49
2021/09/27 06:48:02;;;;;;;24.20;21.60;;;16.90;99.90;;;;;;5090162;28;20421;-48
2021/09/27 06:50:29;;;;;;;22.57;20.33;;;17.00;99.90;;;;;;5080898;28;20429;-47
2021/09/27 06:52:54;;;;;;;23.50;21.00;;;17.00;99.90;;;;;;5090310;28;20184;-53
2021/09/27 06:55:20;;;;;;;24.83;22.30;;;17.10;99.90;;;;;;5087828;28;20471;-47
2021/09/27 06:57:46;;;;;;;23.27;20.87;;;17.10;99.90;;;;;;5087349;28;20174;-51
2021/09/27 07:00:14;;;;;;;23.13;20.90;;;17.30;99.90;;;;;;5076888;28;20237;-50
2021/09/27 07:02:40;;;;;;;23.20;20.90;;;17.40;99.90;;;;;;5086850;28;20425;-48
2021/09/27 07:05:07;;;;;;;22.37;20.20;;;17.50;99.90;;;;;;5069696;28;20436;-47
2021/09/27 07:07:33;;;;;;;24.00;21.60;;;17.60;99.90;;;;;;5067940;28;20541;-49
2021/09/27 07:09:59;;;;;;;22.13;19.83;;;17.80;99.90;;;;;;5069470;28;20421;-50
2021/09/27 07:12:25;;;;;;;20.87;18.87;;;17.80;99.90;;;;;;5072232;28;20429;-52
2021/09/27 07:14:51;;;;;;;20.70;18.53;;;17.90;99.90;;;;;;5089602;28;20223;-47
2021/09/27 07:17:16;;;;;;;19.40;17.53;;;18.00;99.90;;;;;;5089327;28;20238;-53
2021/09/27 07:19:42;;;;;;;18.40;16.70;;;18.10;99.90;;;;;;5072456;28;20188;-49
2021/09/27 07:22:08;;;;;;;18.10;16.30;;;18.00;99.90;;;;;;5069525;28;20609;-56
2021/09/27 07:24:34;;;;;;;18.83;16.93;;;18.00;99.90;;;;;;5076368;28;20467;-50
2021/09/27 07:27:00;;;;;;;18.90;17.20;;;17.90;99.90;;;;;;5069281;28;20183;-50
2021/09/27 07:29:26;;;;;;;18.57;16.67;;;17.90;99.90;;;;;;5064514;28;20435;-48
2021/09/27 07:31:53;;;;;;;19.87;17.87;;;17.90;99.90;;;;;;5066255;28;20182;-51
2021/09/27 07:34:18;;;;;;;19.93;17.93;;;17.90;99.90;;;;;;5068786;28;20178;-50
2021/09/27 07:36:44;;;;;;;20.73;18.63;;;18.10;99.90;;;;;;5066102;28;20466;-47
2021/09/27 07:39:10;;;;;;;20.07;17.97;;;18.10;99.90;;;;;;5065896;28;20181;-50
2021/09/27 07:41:36;;;;;;;19.53;17.73;;;18.10;99.90;;;;;;5067825;28;20197;-48
2021/09/27 07:44:02;;;;;;;18.50;16.70;;;18.10;99.90;;;;;;5063506;28;20507;-48
2021/09/27 07:46:28;;;;;;;19.53;17.53;;;18.10;99.90;;;;;;5064036;28;20178;-49
2021/09/27 07:48:54;;;;;;;21.00;18.70;;;18.20;99.90;;;;;;5063031;28;20737;-52
2021/09/27 07:51:21;;;;;;;18.87;17.10;;;18.30;99.90;;;;;;5058153;28;20185;-51
2021/09/27 07:53:47;;;;;;;19.03;17.17;;;18.40;99.90;;;;;;5062238;28;20721;-50
2021/09/27 07:56:12;;;;;;;17.97;16.27;;;18.50;99.90;;;;;;5066249;28;20479;-52
2021/09/27 07:58:38;;;;;;;16.77;15.30;;;18.60;99.90;;;;;;5085374;28;20416;-51
2021/09/27 08:01:03;;;;;;;18.33;16.70;;;18.80;99.90;;;;;;5076487;28;20186;-48
2021/09/27 08:03:29;;;;;;;18.27;16.47;;;18.80;99.90;;;;;;5082334;28;20184;-47
2021/09/27 08:05:55;;;;;;;18.37;16.47;;;18.90;99.90;;;;;;5087627;28;20181;-50
2021/09/27 08:08:20;;;;;;;18.40;16.60;;;19.00;99.90;;;;;;5088218;28;20212;-52
2021/09/27 08:10:46;;;;;;;18.10;16.30;;;19.10;99.90;;;;;;5069957;28;20813;-53
2021/09/27 08:13:15;;;;;;;17.33;15.63;;;19.20;99.90;;;;;;5075973;28;20188;-49
2021/09/27 08:15:45;;;;;;;17.30;15.50;;;19.30;99.90;;;;;;5066717;28;20204;-49
2021/09/27 08:18:12;;;;;;;16.93;15.20;;;19.40;99.90;;;;;;5085556;28;20969;-50
2021/09/27 08:20:43;;;;;;;16.67;15.03;;;19.50;99.90;;;;;;5073386;28;20420;-51
2021/09/27 08:23:09;;;;;;;16.30;14.57;;;19.40;99.90;;;;;;5069007;28;20481;-51
2021/09/27 08:25:36;;;;;;;15.87;14.27;;;19.50;99.90;;;;;;5071211;28;20416;-54
2021/09/27 08:28:04;;;;;;;15.80;14.30;;;19.60;99.90;;;;;;5067187;28;20423;-49
2021/09/27 08:30:36;;;;;;;14.37;13.07;;;19.70;99.90;;;;;;5067524;28;20420;-50
2021/09/27 08:36:24;;;;;;;14.67;13.17;;;19.90;99.90;;;;;;5068345;28;20466;-50
2021/09/27 08:38:50;;;;;;;13.70;12.30;;;19.80;99.90;;;;;;5068633;28;20416;-52
2021/09/27 08:41:30;;;;;;;13.47;12.23;;;19.90;99.90;;;;;;5075500;28;20443;-49
2021/09/27 08:44:29;;;;;;;14.27;12.90;;;20.00;99.90;;;;;;5061133;28;20452;-54
2021/09/27 08:47:04;;;;;;;14.13;12.73;;;20.00;99.90;;;;;;5064605;28;20515;-52
2021/09/27 08:50:14;;;;;;;13.57;12.30;;;19.90;99.90;;;;;;5065511;28;20897;-51
2021/09/27 08:52:41;;;;;;;14.87;13.47;;;20.10;99.90;;;;;;5038855;28;20512;-49
2021/09/27 08:55:11;;;;;;;14.07;12.67;;;20.20;99.90;;;;;;5068127;28;20922;-49
2021/09/27 08:57:41;;;;;;;16.50;13.50;;;20.30;99.90;;;;;;5066821;28;20416;-50
2021/09/27 09:00:38;;;;;;;14.80;13.50;;;20.40;99.90;;;;;;5066873;28;21140;-52
2021/09/27 09:03:19;;;;;;;14.40;13.00;;;20.50;99.90;;;;;;5065278;28;20431;-50
2021/09/27 09:06:00;;;;;;;15.57;13.97;;;20.50;99.90;;;;;;5065591;28;20921;-50
2021/09/27 09:08:31;;;;;;;15.40;13.80;;;20.30;99.90;;;;;;5066865;28;20465;-52
2021/09/27 09:11:20;;;;;;;15.50;14.00;;;20.40;99.90;;;;;;5067292;28;20420;-48
2021/09/27 09:13:52;;;;;;;14.80;13.50;;;20.80;99.90;;;;;;5069507;28;20423;-51
2021/09/27 09:16:20;;;;;;;14.97;13.47;;;20.70;99.90;;;;;;5070528;28;20549;-52
2021/09/27 09:18:52;;;;;;;13.67;12.47;;;20.90;99.90;;;;;;5064762;28;20428;-49
2021/09/27 09:21:25;;;;;;;13.73;12.43;;;21.20;99.90;;;;;;5075320;28;20832;-47
2021/09/27 09:23:55;;;;;;;14.33;12.93;;;21.50;99.90;;;;;;5066517;28;20427;-53
2021/09/27 09:26:32;;;;;;;14.80;13.50;;;21.70;99.90;;;;;;5073575;28;20450;-53
2021/09/27 09:28:59;;;;;;;14.80;13.50;;;22.10;99.90;;;;;;5070999;28;20415;-57
2021/09/27 09:31:34;;;;;;;12.30;11.30;;;22.40;99.90;;;;;;5071531;28;20916;-51
2021/09/27 09:34:27;;;;;;;13.33;12.17;;;22.60;99.90;;;;;;5070222;28;20770;-48
2021/09/27 09:36:56;;;;;;;13.67;12.27;;;22.90;99.90;;;;;;5063507;28;20479;-48
2021/09/27 09:39:23;;;;;;;13.20;11.87;;;23.20;99.90;;;;;;5063332;28;20446;-54
2021/09/27 09:41:58;;;;;;;11.93;10.93;;;23.30;99.90;;;;;;5064946;28;20522;-54
2021/09/27 09:44:43;;;;;;;12.10;11.10;;;23.80;99.90;;;;;;5067041;28;20470;-53
2021/09/27 09:47:13;;;;;;;12.07;11.17;;;23.90;99.90;;;;;;5066708;28;20505;-51
2021/09/27 09:50:01;;;;;;;12.30;11.23;;;23.90;99.90;;;;;;5066849;28;20440;-53
2021/09/27 09:52:46;;;;;;;11.30;10.30;;;23.90;99.90;;;;;;5045873;28;20431;-55
2021/09/27 09:55:15;;;;;;;11.23;10.27;;;24.00;99.90;;;;;;5062447;28;20495;-49
2021/09/27 09:57:53;;;;;;;11.23;10.23;;;24.50;99.90;;;;;;5077439;28;20422;-49
2021/09/27 10:00:54;;;;;;;10.23;9.27;;;24.70;99.90;;;;;;5061289;28;20437;-50
2021/09/27 10:03:33;;;;;;;10.50;9.50;;;25.00;99.90;;;;;;5063628;28;20431;-50
2021/09/27 10:06:22;;;;;;;10.80;9.90;;;25.20;99.90;;;;;;5067661;28;20457;-50
2021/09/27 10:08:54;;;;;;;11.33;10.43;;;25.80;99.90;;;;;;5069341;28;20422;-48
2021/09/27 10:11:44;;;;;;;11.67;10.60;;;25.80;99.90;;;;;;5068589;28;21230;-48
2021/09/27 10:14:31;;;;;;;11.97;11.00;;;26.70;99.90;;;;;;5063024;28;20528;-50
2021/09/27 10:17:24;;;;;;;11.60;10.70;;;27.20;99.50;;;;;;5068541;28;20419;-52
2021/09/27 10:20:18;;;;;;;11.37;10.47;;;27.50;99.20;;;;;;5070021;28;20919;-48
2021/09/27 10:23:05;;;;;;;11.00;10.10;;;27.50;98.70;;;;;;5063806;28;20431;-52
2021/09/27 10:25:34;;;;;;;11.37;10.50;;;27.70;98.30;;;;;;5066275;28;20541;-50
2021/09/27 10:28:02;;;;;;;11.77;10.87;;;27.60;98.70;;;;;;5063649;28;20544;-52
2021/09/27 10:30:43;;;;;;;10.37;9.60;;;28.00;96.90;;;;;;5083893;28;20449;-50
2021/09/27 10:33:16;;;;;;;12.23;11.27;;;27.90;96.70;;;;;;5086460;28;20445;-50
2021/09/27 10:35:56;;;;;;;11.10;10.20;;;28.40;95.00;;;;;;5071341;28;20459;-50
2021/09/27 10:38:42;;;;;;;9.40;8.70;;;28.80;94.20;;;;;;5072957;28;20427;-56
2021/09/27 10:41:18;;;;;;;10.60;9.80;;;28.80;93.20;;;;;;5061207;28;20420;-52
2021/09/27 10:43:45;;;;;;;10.17;9.27;;;28.70;92.70;;;;;;5063640;28;20470;-53
2021/09/27 10:46:11;;;;;;;10.33;9.53;;;28.90;93.10;;;;;;5060980;28;20438;-51
2021/09/27 10:48:41;;;;;;;9.93;9.13;;;29.60;91.90;;;;;;5068316;28;20447;-55
2021/09/27 10:51:09;;;;;;;9.70;9.10;;;29.50;91.00;;;;;;5073555;28;20287;-54
2021/09/27 10:53:45;;;;;;;9.40;8.80;;;29.30;92.00;;;;;;5072132;28;20423;-51
2021/09/27 10:56:33;;;;;;;9.20;8.60;;;29.20;91.20;;;;;;5068955;28;20855;-50
2021/09/27 10:59:04;;;;;;;8.97;8.37;;;29.60;90.30;;;;;;5064838;28;20521;-54
2021/09/27 11:01:49;;;;;;;9.60;9.00;;;29.40;89.70;;;;;;5068331;28;20420;-51
2021/09/27 11:04:19;;;;;;;9.00;8.40;;;29.20;90.90;;;;;;5069562;28;20420;-54
2021/09/27 11:06:55;;;;;;;9.87;9.20;;;28.80;90.10;;;;;;5068998;28;20437;-51
2021/09/27 11:09:29;;;;;;;11.30;10.50;;;28.10;91.50;;;;;;5069298;28;20422;-50
2021/09/27 11:12:11;;;;;;;9.57;8.90;;;27.70;92.10;;;;;;5069470;28;20534;-51
2021/09/27 11:14:40;;;;;;;9.80;9.10;;;27.20;93.50;;;;;;5068832;28;20423;-54
2021/09/27 11:17:05;;;;;;;10.00;9.30;;;27.30;93.60;;;;;;5058590;28;20441;-50
2021/09/27 11:19:33;;;;;;;10.07;9.33;;;27.00;93.60;;;;;;5063281;28;20777;-51
2021/09/27 11:22:14;;;;;;;9.27;8.57;;;26.90;95.20;;;;;;5069446;28;20799;-54
2021/09/27 11:24:42;;;;;;;10.67;9.90;;;27.00;94.50;;;;;;5068302;28;20424;-52
2021/09/27 11:27:18;;;;;;;8.17;7.60;;;27.10;93.50;;;;;;5070935;28;20431;-55
2021/09/27 11:29:58;;;;;;;9.63;9.00;;;27.00;94.10;;;;;;5059969;28;20420;-55
2021/09/27 11:32:28;;;;;;;9.80;9.00;;;27.00;93.70;;;;;;5062162;28;20415;-55
2021/09/27 11:35:02;;;;;;;8.97;8.37;;;27.10;94.10;;;;;;5066983;28;20506;-51
2021/09/27 11:37:32;;;;;;;8.33;7.73;;;27.50;94.00;;;;;;5067987;28;21185;-51
2021/09/27 11:40:01;;;;;;;9.20;8.40;;;28.10;94.00;;;;;;5062960;28;20500;-54
2021/09/27 11:42:50;;;;;;;8.40;7.73;;;29.50;91.80;;;;;;5064178;28;20427;-55
2021/09/27 11:45:43;;;;;;;9.50;8.70;;;30.20;86.40;;;;;;5060978;28;20440;-51
2021/09/27 11:48:17;;;;;;;9.83;9.13;;;30.40;86.70;;;;;;5068704;28;20423;-51
2021/09/27 11:50:55;;;;;;;8.87;8.27;;;31.10;81.10;;;;;;5067850;28;20462;-51
2021/09/27 11:54:01;;;;;;;8.77;7.90;;;31.80;78.50;;;;;;5066557;28;20557;-53
2021/09/27 11:56:30;;;;;;;8.00;7.60;;;32.80;70.70;;;;;;5065792;28;20887;-56
2021/09/27 11:59:09;;;;;;;7.20;6.80;;;32.80;66.20;;;;;;5067727;28;20455;-52
2021/09/27 12:01:38;;;;;;;7.90;7.50;;;32.90;65.90;;;;;;5067294;28;21109;-51
2021/09/27 12:04:18;;;;;;;8.10;7.60;;;33.40;64.20;;;;;;5067465;28;20466;-53
2021/09/27 12:06:49;;;;;;;8.00;7.50;;;33.30;63.50;;;;;;5059921;28;20424;-54
2021/09/27 12:09:23;;;;;;;7.90;7.40;;;33.20;62.40;;;;;;5050354;28;20420;-54
2021/09/27 12:11:58;;;;;;;7.93;7.53;;;33.40;60.20;;;;;;5050142;28;20448;-53
2021/09/27 12:14:35;;;;;;;8.20;7.73;;;33.60;56.80;;;;;;5050161;28;20423;-53
2021/09/27 12:17:05;;;;;;;7.63;7.10;;;33.80;53.60;;;;;;5051884;28;20478;-52
2021/09/27 12:19:45;;;;;;;7.80;7.30;;;33.70;53.40;;;;;;5058546;28;20454;-53
2021/09/27 12:22:19;;;;;;;8.20;7.70;;;34.70;50.90;;;;;;5067032;28;20952;-52
2021/09/27 12:24:44;;;;;;;7.60;7.10;;;35.50;48.70;;;;;;5066571;28;20408;-55
2021/09/27 12:27:15;;;;;;;8.93;8.37;;;35.20;47.30;;;;;;5069033;28;20431;-50
2021/09/27 12:30:12;;;;;;;8.73;8.20;;;34.60;50.10;;;;;;5067097;28;20181;-53
2021/09/27 12:32:39;;;;;;;9.30;8.80;;;33.80;51.40;;;;;;5066917;28;20461;-52
2021/09/27 12:35:16;;;;;;;8.77;8.27;;;33.00;52.60;;;;;;5068181;28;21009;-51
2021/09/27 12:37:44;;;;;;;8.80;8.30;;;32.60;54.40;;;;;;5064870;28;20461;-50
2021/09/27 12:40:16;;;;;;;8.87;8.37;;;32.50;55.50;;;;;;5066971;28;20420;-55
2021/09/27 12:42:46;;;;;;;9.17;8.40;;;33.10;54.00;;;;;;5064225;28;20830;-51
2021/09/27 12:45:40;;;;;;;8.70;8.20;;;33.50;54.20;;;;;;5067113;28;21004;-52
2021/09/27 12:48:32;;;;;;;8.40;7.90;;;33.40;53.50;;;;;;5061491;28;20447;-53
2021/09/27 12:51:07;;;;;;;8.20;7.80;;;33.50;53.10;;;;;;5071655;28;20431;-53
2021/09/27 12:53:56;;;;;;;8.37;7.77;;;33.70;51.20;;;;;;5072187;28;20482;-48
2021/09/27 12:56:22;;;;;;;9.03;8.43;;;33.40;51.50;;;;;;5069087;28;20459;-53
2021/09/27 12:58:59;;;;;;;9.57;8.97;;;32.90;52.90;;;;;;5066434;28;20450;-50
2021/09/27 13:01:27;;;;;;;9.80;9.20;;;32.20;52.90;;;;;;5063885;28;20442;-52
2021/09/27 13:04:22;;;;;;;9.80;9.20;;;31.30;55.00;;;;;;5069437;28;20917;-52
2021/09/27 13:07:07;;;;;;;9.13;8.53;;;30.40;58.50;;;;;;5064848;28;20424;-55
2021/09/27 13:09:37;;;;;;;8.23;7.73;;;29.70;60.50;;;;;;5066149;28;20467;-54
2021/09/27 13:12:26;;;;;;;9.37;8.70;;;29.40;62.10;;;;;;5064608;28;20497;-54
2021/09/27 13:15:05;;;;;;;9.83;9.00;;;29.20;64.20;;;;;;5070536;28;20412;-52
2021/09/27 13:17:32;;;;;;;10.17;9.47;;;29.40;64.00;;;;;;5064742;28;20430;-53
2021/09/27 13:20:01;;;;;;;10.67;9.97;;;29.70;63.60;;;;;;5069261;28;20429;-54